sensor_id;sensor_type;location;lat;lon;timestamp;P1;durP1;ratioP1;P2;durP2;ratioP2
49980;SDS011;35871;51.594;7.138;2023-02-15T06:54:19;12.38;;;7.90;;
49980;SDS011;35871;51.594;7.138;2023-02-15T06:59:20;10.38;;;6.90;;
49980;SDS011;35871;51.594;7.138;2023-02-15T07:04:21;7.97;;;6.20;;
49980;SDS011;35871;51.594;7.138;2023-02-15T07:09:22;13.30;;;8.00;;
49980;SDS011;35871;51.594;7.138;2023-02-15T07:14:23;12.15;;;8.38;;
49980;SDS011;35871;51.594;7.138;2023-02-15T07:19:24;12.98;;;9.13;;
49980;SDS011;35871;51.594;7.138;2023-02-15T07:29:26;16.65;;;11.82;;
49980;SDS011;35871;51.594;7.138;2023-02-15T07:39:28;12.93;;;10.68;;
49980;SDS011;35871;51.594;7.138;2023-02-15T07:49:30;12.20;;;9.13;;
49980;SDS011;35871;51.594;7.138;2023-02-15T07:59:32;13.45;;;10.90;;
49980;SDS011;35871;51.594;7.138;2023-02-15T08:09:34;18.48;;;13.85;;
49980;SDS011;35871;51.594;7.138;2023-02-15T08:19:36;20.83;;;16.08;;
49980;SDS011;35871;51.594;7.138;2023-02-15T08:29:38;17.60;;;13.20;;
49980;SDS011;35871;51.594;7.138;2023-02-15T08:34:41;18.30;;;13.48;;
49980;SDS011;35871;51.594;7.138;2023-02-15T08:39:42;15.27;;;12.52;;
49980;SDS011;35871;51.594;7.138;2023-02-15T08:54:48;16.90;;;13.30;;
49980;SDS011;35871;51.594;7.138;2023-02-15T08:59:49;16.17;;;12.90;;
49980;SDS011;35871;51.594;7.138;2023-02-15T09:04:51;18.55;;;13.73;;
49980;SDS011;35871;51.594;7.138;2023-02-15T09:09:52;13.60;;;11.18;;
49980;SDS011;35871;51.594;7.138;2023-02-15T09:14:54;15.77;;;11.45;;
49980;SDS011;35871;51.594;7.138;2023-02-15T09:19:55;14.07;;;10.77;;
49980;SDS011;35871;51.594;7.138;2023-02-15T09:24:56;11.43;;;9.00;;
49980;SDS011;35871;51.594;7.138;2023-02-15T09:29:57;14.82;;;9.85;;
49980;SDS011;35871;51.594;7.138;2023-02-15T09:34:58;16.30;;;11.20;;
49980;SDS011;35871;51.594;7.138;2023-02-15T09:39:59;14.02;;;11.07;;
49980;SDS011;35871;51.594;7.138;2023-02-15T10:06:05;12.10;;;9.10;;
49980;SDS011;35871;51.594;7.138;2023-02-15T10:11:14;12.75;;;10.27;;
49980;SDS011;35871;51.594;7.138;2023-02-15T10:16:48;10.98;;;9.00;;
49980;SDS011;35871;51.594;7.138;2023-02-15T10:26:58;16.35;;;11.63;;
49980;SDS011;35871;51.594;7.138;2023-02-15T10:42:40;14.77;;;9.30;;
49980;SDS011;35871;51.594;7.138;2023-02-15T10:52:59;12.63;;;9.35;;
49980;SDS011;35871;51.594;7.138;2023-02-15T10:58:15;11.13;;;8.57;;
49980;SDS011;35871;51.594;7.138;2023-02-15T11:03:24;13.43;;;10.25;;
49980;SDS011;35871;51.594;7.138;2023-02-15T11:08:31;13.25;;;9.45;;
49980;SDS011;35871;51.594;7.138;2023-02-15T11:13:35;12.25;;;9.48;;
49980;SDS011;35871;51.594;7.138;2023-02-15T11:18:39;15.32;;;11.63;;
49980;SDS011;35871;51.594;7.138;2023-02-15T11:23:42;12.05;;;8.82;;
49980;SDS011;35871;51.594;7.138;2023-02-15T11:28:55;18.55;;;14.35;;
49980;SDS011;35871;51.594;7.138;2023-02-15T11:33:58;20.13;;;14.93;;
49980;SDS011;35871;51.594;7.138;2023-02-15T11:39:07;13.68;;;10.23;;
49980;SDS011;35871;51.594;7.138;2023-02-15T11:44:14;14.27;;;11.38;;
49980;SDS011;35871;51.594;7.138;2023-02-15T11:49:27;14.23;;;11.52;;
49980;SDS011;35871;51.594;7.138;2023-02-15T11:54:30;16.83;;;10.10;;
49980;SDS011;35871;51.594;7.138;2023-02-15T11:59:34;24.27;;;17.77;;
49980;SDS011;35871;51.594;7.138;2023-02-15T12:04:37;14.00;;;10.68;;
49980;SDS011;35871;51.594;7.138;2023-02-15T12:09:46;17.48;;;11.95;;
49980;SDS011;35871;51.594;7.138;2023-02-15T12:14:48;18.05;;;12.05;;
49980;SDS011;35871;51.594;7.138;2023-02-15T12:19:50;12.75;;;10.02;;
49980;SDS011;35871;51.594;7.138;2023-02-15T12:24:54;10.88;;;7.60;;
49980;SDS011;35871;51.594;7.138;2023-02-15T12:30:00;11.32;;;7.93;;
49980;SDS011;35871;51.594;7.138;2023-02-15T12:35:07;14.88;;;9.10;;
49980;SDS011;35871;51.594;7.138;2023-02-15T12:40:20;13.80;;;10.18;;
49980;SDS011;35871;51.594;7.138;2023-02-15T12:45:32;11.02;;;8.00;;
49980;SDS011;35871;51.594;7.138;2023-02-15T12:50:33;10.57;;;7.47;;
49980;SDS011;35871;51.594;7.138;2023-02-15T12:55:34;13.52;;;9.35;;
49980;SDS011;35871;51.594;7.138;2023-02-15T13:00:36;12.57;;;7.82;;
49980;SDS011;35871;51.594;7.138;2023-02-15T13:05:38;15.35;;;9.48;;
49980;SDS011;35871;51.594;7.138;2023-02-15T13:10:41;10.10;;;7.53;;
49980;SDS011;35871;51.594;7.138;2023-02-15T13:15:44;17.05;;;9.77;;
49980;SDS011;35871;51.594;7.138;2023-02-15T13:20:47;15.00;;;8.77;;
49980;SDS011;35871;51.594;7.138;2023-02-15T13:25:49;9.80;;;6.82;;
49980;SDS011;35871;51.594;7.138;2023-02-15T13:30:51;15.40;;;10.65;;
49980;SDS011;35871;51.594;7.138;2023-02-15T13:35:57;14.52;;;9.82;;
49980;SDS011;35871;51.594;7.138;2023-02-15T13:41:04;16.05;;;9.63;;
49980;SDS011;35871;51.594;7.138;2023-02-15T13:46:10;15.23;;;9.60;;
49980;SDS011;35871;51.594;7.138;2023-02-15T13:51:21;15.80;;;9.70;;
49980;SDS011;35871;51.594;7.138;2023-02-15T14:01:45;16.42;;;9.57;;
49980;SDS011;35871;51.594;7.138;2023-02-15T14:21:59;11.70;;;7.38;;
49980;SDS011;35871;51.594;7.138;2023-02-15T14:32:10;11.02;;;7.85;;
49980;SDS011;35871;51.594;7.138;2023-02-15T14:37:12;13.32;;;7.93;;
49980;SDS011;35871;51.594;7.138;2023-02-15T14:42:20;12.18;;;8.70;;
49980;SDS011;35871;51.594;7.138;2023-02-15T14:47:28;16.05;;;11.60;;
49980;SDS011;35871;51.594;7.138;2023-02-15T14:52:31;12.57;;;8.93;;
49980;SDS011;35871;51.594;7.138;2023-02-15T14:57:56;12.63;;;7.60;;
49980;SDS011;35871;51.594;7.138;2023-02-15T15:02:57;10.02;;;7.07;;
49980;SDS011;35871;51.594;7.138;2023-02-15T15:07:58;9.85;;;6.57;;
49980;SDS011;35871;51.594;7.138;2023-02-15T15:13:33;14.98;;;9.20;;
49980;SDS011;35871;51.594;7.138;2023-02-15T15:23:42;7.70;;;5.50;;
49980;SDS011;35871;51.594;7.138;2023-02-15T15:49:29;12.93;;;8.40;;
49980;SDS011;35871;51.594;7.138;2023-02-15T15:54:31;9.38;;;5.88;;
49980;SDS011;35871;51.594;7.138;2023-02-15T15:59:33;11.32;;;8.20;;
49980;SDS011;35871;51.594;7.138;2023-02-15T16:04:34;10.05;;;5.78;;
49980;SDS011;35871;51.594;7.138;2023-02-15T16:09:35;10.98;;;6.45;;
49980;SDS011;35871;51.594;7.138;2023-02-15T16:14:38;10.93;;;7.43;;
49980;SDS011;35871;51.594;7.138;2023-02-15T16:19:40;9.38;;;6.78;;
49980;SDS011;35871;51.594;7.138;2023-02-15T16:29:52;11.93;;;7.78;;
49980;SDS011;35871;51.594;7.138;2023-02-15T16:34:57;15.15;;;9.45;;
49980;SDS011;35871;51.594;7.138;2023-02-15T16:39:58;8.25;;;6.10;;
49980;SDS011;35871;51.594;7.138;2023-02-15T16:50:10;12.10;;;7.82;;
49980;SDS011;35871;51.594;7.138;2023-02-15T16:55:21;11.95;;;7.53;;
49980;SDS011;35871;51.594;7.138;2023-02-15T17:00:24;10.75;;;7.32;;
49980;SDS011;35871;51.594;7.138;2023-02-15T17:05:33;12.00;;;8.18;;
49980;SDS011;35871;51.594;7.138;2023-02-15T17:10:41;16.58;;;10.20;;
49980;SDS011;35871;51.594;7.138;2023-02-15T17:15:44;11.55;;;7.90;;
49980;SDS011;35871;51.594;7.138;2023-02-15T17:21:10;14.45;;;8.23;;
49980;SDS011;35871;51.594;7.138;2023-02-15T17:26:20;11.60;;;7.88;;
49980;SDS011;35871;51.594;7.138;2023-02-15T17:31:22;9.15;;;6.45;;
49980;SDS011;35871;51.594;7.138;2023-02-15T17:36:26;9.90;;;6.72;;
49980;SDS011;35871;51.594;7.138;2023-02-15T17:41:30;10.50;;;7.85;;
49980;SDS011;35871;51.594;7.138;2023-02-15T17:46:35;12.32;;;8.43;;
49980;SDS011;35871;51.594;7.138;2023-02-15T17:56:41;10.43;;;7.63;;
49980;SDS011;35871;51.594;7.138;2023-02-15T18:01:43;11.10;;;7.28;;
49980;SDS011;35871;51.594;7.138;2023-02-15T18:07:04;13.15;;;7.82;;
49980;SDS011;35871;51.594;7.138;2023-02-15T18:12:28;11.43;;;7.43;;
49980;SDS011;35871;51.594;7.138;2023-02-15T18:17:36;11.27;;;8.23;;
49980;SDS011;35871;51.594;7.138;2023-02-15T18:22:38;11.73;;;8.55;;
49980;SDS011;35871;51.594;7.138;2023-02-15T18:27:39;10.07;;;6.93;;
49980;SDS011;35871;51.594;7.138;2023-02-15T18:32:40;9.23;;;6.43;;
49980;SDS011;35871;51.594;7.138;2023-02-15T18:37:41;12.75;;;8.27;;
49980;SDS011;35871;51.594;7.138;2023-02-15T18:42:42;12.35;;;9.05;;
49980;SDS011;35871;51.594;7.138;2023-02-15T18:47:47;8.57;;;6.20;;
49980;SDS011;35871;51.594;7.138;2023-02-15T18:52:49;11.05;;;6.72;;
49980;SDS011;35871;51.594;7.138;2023-02-15T18:57:51;9.30;;;6.18;;
49980;SDS011;35871;51.594;7.138;2023-02-15T19:02:53;9.70;;;5.65;;
49980;SDS011;35871;51.594;7.138;2023-02-15T19:07:54;8.68;;;6.22;;
49980;SDS011;35871;51.594;7.138;2023-02-15T19:12:56;10.23;;;7.50;;
49980;SDS011;35871;51.594;7.138;2023-02-15T19:17:57;9.45;;;7.00;;
49980;SDS011;35871;51.594;7.138;2023-02-15T19:22:58;10.38;;;7.18;;
49980;SDS011;35871;51.594;7.138;2023-02-15T19:28:00;7.65;;;6.25;;
49980;SDS011;35871;51.594;7.138;2023-02-15T19:33:04;11.50;;;6.20;;
49980;SDS011;35871;51.594;7.138;2023-02-15T19:38:06;10.55;;;6.18;;
49980;SDS011;35871;51.594;7.138;2023-02-15T19:43:15;9.68;;;7.57;;
49980;SDS011;35871;51.594;7.138;2023-02-15T19:48:16;9.27;;;6.35;;
49980;SDS011;35871;51.594;7.138;2023-02-15T19:53:19;8.80;;;6.70;;
49980;SDS011;35871;51.594;7.138;2023-02-15T19:58:22;9.05;;;6.85;;
49980;SDS011;35871;51.594;7.138;2023-02-15T20:03:23;7.53;;;6.07;;
49980;SDS011;35871;51.594;7.138;2023-02-15T20:08:24;8.13;;;6.15;;
49980;SDS011;35871;51.594;7.138;2023-02-15T20:13:26;10.07;;;7.60;;
49980;SDS011;35871;51.594;7.138;2023-02-15T20:18:27;9.48;;;7.18;;
